Time;durP1;ratioP1;P1;durP2;ratioP2;P2;SDS_P1;SDS_P2;PMS_P1;PMS_P2;Temp;Humidity;BMP_temperature;BMP_pressure;BME280_temperature;BME280_humidity;BME280_pressure;Samples;Min_cycle;Max_cycle;Signal;HPM_P1;HPM_P2
2021/07/22 00:02:01;;;;;;;;;;;25.10;49.30;;;;;;1595675;73;764;-71
2021/07/22 00:04:03;;;;;;;;;;;25.10;49.20;;;;;;1596104;73;750;-71
2021/07/22 00:06:05;;;;;;;;;;;25.10;49.10;;;;;;1608748;73;1918;-69
2021/07/22 00:08:11;;;;;;;;;;;25.10;49.00;;;;;;1594063;73;768;-71
2021/07/22 00:10:11;;;;;;;;;;;25.10;49.10;;;;;;1593539;73;1585;-69
2021/07/22 00:12:12;;;;;;;;;;;25.00;49.00;;;;;;1587889;73;773;-70
2021/07/22 00:14:15;;;;;;;;;;;25.00;49.10;;;;;;1593571;73;704;-69
2021/07/22 00:16:17;;;;;;;;;;;25.10;49.00;;;;;;1574363;73;747;-68
2021/07/22 00:18:19;;;;;;;;;;;25.10;49.10;;;;;;1586392;73;1150;-68
2021/07/22 00:20:21;;;;;;;;;;;25.00;49.10;;;;;;1601130;73;779;-68
2021/07/22 00:22:23;;;;;;;;;;;25.00;49.20;;;;;;1592657;73;762;-68
2021/07/22 00:24:25;;;;;;;;;;;25.10;49.20;;;;;;1597216;73;767;-69
2021/07/22 00:26:27;;;;;;;;;;;25.00;49.20;;;;;;1605297;73;1937;-67
2021/07/22 00:28:29;;;;;;;;;;;25.00;49.10;;;;;;1578849;73;1159;-68
2021/07/22 00:30:31;;;;;;;;;;;25.00;49.00;;;;;;1588183;73;804;-71
2021/07/22 00:32:33;;;;;;;;;;;25.00;49.10;;;;;;1594216;73;766;-67
2021/07/22 00:34:35;;;;;;;;;;;25.10;49.00;;;;;;1599601;73;791;-69
2021/07/22 00:36:36;;;;;;;;;;;25.00;49.00;;;;;;1609554;73;750;-68
2021/07/22 00:38:38;;;;;;;;;;;25.00;49.00;;;;;;1593613;73;1187;-68
2021/07/22 00:40:42;;;;;;;;;;;25.00;48.90;;;;;;1582622;73;756;-67
2021/07/22 00:43:00;;;;;;;;;;;25.00;48.90;;;;;;1592348;73;1823;-69
2021/07/22 00:45:01;;;;;;;;;;;25.00;48.80;;;;;;1596769;73;754;-69
2021/07/22 00:47:03;;;;;;;;;;;25.00;48.90;;;;;;1587927;73;1931;-68
2021/07/22 00:49:12;;;;;;;;;;;25.00;48.90;;;;;;1585355;73;1136;-69
2021/07/22 00:51:13;;;;;;;;;;;25.00;48.70;;;;;;1597491;73;765;-68
2021/07/22 00:53:15;;;;;;;;;;;25.00;48.70;;;;;;1593607;73;798;-67
2021/07/22 00:55:18;;;;;;;;;;;25.00;48.80;;;;;;1595721;73;766;-70
2021/07/22 00:57:20;;;;;;;;;;;25.00;48.70;;;;;;1598344;74;741;-69
2021/07/22 00:59:22;;;;;;;;;;;25.00;48.70;;;;;;1585699;73;1128;-70
2021/07/22 01:01:24;;;;;;;;;;;25.00;48.70;;;;;;1590492;73;771;-69
2021/07/22 01:03:26;;;;;;;;;;;25.00;48.80;;;;;;1585764;73;787;-70
2021/07/22 01:05:28;;;;;;;;;;;25.00;48.80;;;;;;1597056;73;764;-69
2021/07/22 01:07:29;;;;;;;;;;;25.00;48.60;;;;;;1595337;73;702;-69
2021/07/22 01:09:31;;;;;;;;;;;25.00;48.50;;;;;;1596478;73;1140;-70
2021/07/22 01:11:33;;;;;;;;;;;25.00;48.50;;;;;;1597153;73;756;-67
2021/07/22 01:13:35;;;;;;;;;;;25.00;48.40;;;;;;1601180;73;800;-69
2021/07/22 01:15:37;;;;;;;;;;;25.00;48.40;;;;;;1591978;73;803;-69
2021/07/22 01:17:49;;;;;;;;;;;25.00;48.20;;;;;;1593339;73;783;-69
2021/07/22 01:19:51;;;;;;;;;;;25.10;48.10;;;;;;1583745;73;1138;-66
2021/07/22 01:21:53;;;;;;;;;;;25.00;47.90;;;;;;1589273;73;819;-69
2021/07/22 01:23:54;;;;;;;;;;;25.10;48.00;;;;;;1595724;73;922;-68
2021/07/22 01:25:56;;;;;;;;;;;25.00;48.00;;;;;;1586521;73;1927;-71
2021/07/22 01:27:58;;;;;;;;;;;25.00;48.00;;;;;;1588100;73;821;-71
2021/07/22 01:30:00;;;;;;;;;;;25.00;48.10;;;;;;1591368;72;225082;-70
2021/07/22 01:32:06;;;;;;;;;;;25.00;48.20;;;;;;1580385;74;694;-71
2021/07/22 01:34:07;;;;;;;;;;;25.00;48.00;;;;;;1589378;74;648;-70
2021/07/22 01:36:09;;;;;;;;;;;25.00;48.00;;;;;;1588240;74;698;-71
2021/07/22 01:38:11;;;;;;;;;;;25.00;48.00;;;;;;1583576;74;791;-72
2021/07/22 01:40:13;;;;;;;;;;;25.00;48.00;;;;;;1573482;74;1180;-73
2021/07/22 01:42:15;;;;;;;;;;;25.00;48.00;;;;;;1568750;74;1010;-72
2021/07/22 01:44:17;;;;;;;;;;;25.00;48.10;;;;;;1573240;74;741;-67
2021/07/22 01:46:20;;;;;;;;;;;25.00;48.00;;;;;;1571957;74;1937;-72
2021/07/22 01:48:21;;;;;;;;;;;25.00;48.10;;;;;;1567470;74;699;-71
2021/07/22 01:50:23;;;;;;;;;;;25.00;48.00;;;;;;1567587;74;1092;-71
2021/07/22 01:52:25;;;;;;;;;;;25.00;48.00;;;;;;1568377;75;788;-71
2021/07/22 01:54:28;;;;;;;;;;;25.00;47.90;;;;;;1570112;74;816;-73
2021/07/22 01:56:30;;;;;;;;;;;25.00;48.00;;;;;;1563821;75;756;-73
2021/07/22 01:58:31;;;;;;;;;;;25.00;48.00;;;;;;1572515;74;730;-73
2021/07/22 02:00:33;;;;;;;;;;;25.00;47.90;;;;;;1565834;75;1129;-73
2021/07/22 02:02:35;;;;;;;;;;;25.00;47.80;;;;;;1570422;75;731;-73
2021/07/22 02:04:38;;;;;;;;;;;25.00;47.80;;;;;;1567921;75;895;-73
2021/07/22 02:06:40;;;;;;;;;;;25.00;47.80;;;;;;1563879;75;1927;-72
2021/07/22 02:08:42;;;;;;;;;;;24.90;47.70;;;;;;1570412;75;1129;-73
2021/07/22 02:10:43;;;;;;;;;;;25.00;47.60;;;;;;1558590;75;756;-72
2021/07/22 02:12:45;;;;;;;;;;;25.00;47.50;;;;;;1571832;75;757;-73
2021/07/22 02:14:50;;;;;;;;;;;24.90;47.40;;;;;;1561545;74;801;-73
2021/07/22 02:16:51;;;;;;;;;;;25.00;47.40;;;;;;1564290;74;997;-73
2021/07/22 02:18:53;;;;;;;;;;;25.00;47.40;;;;;;1574641;74;1082;-72
2021/07/22 02:20:55;;;;;;;;;;;25.00;47.50;;;;;;1556863;74;813;-73
2021/07/22 02:22:56;;;;;;;;;;;25.00;47.50;;;;;;1562580;75;697;-72
2021/07/22 02:24:58;;;;;;;;;;;25.00;47.30;;;;;;1567480;75;704;-69
2021/07/22 02:27:01;;;;;;;;;;;25.00;47.30;;;;;;1566150;74;1937;-74
2021/07/22 02:29:03;;;;;;;;;;;25.00;47.30;;;;;;1567335;75;1164;-72
2021/07/22 02:31:05;;;;;;;;;;;24.90;47.30;;;;;;1571748;75;782;-69
2021/07/22 02:33:07;;;;;;;;;;;24.90;47.20;;;;;;1574446;74;676;-72
2021/07/22 02:35:09;;;;;;;;;;;25.00;47.20;;;;;;1559272;74;726;-72
2021/07/22 02:37:11;;;;;;;;;;;25.00;47.10;;;;;;1568531;74;606;-73
2021/07/22 02:39:13;;;;;;;;;;;24.90;47.10;;;;;;1563192;74;1139;-72
2021/07/22 02:41:15;;;;;;;;;;;24.90;47.10;;;;;;1561974;74;734;-71
2021/07/22 02:43:17;;;;;;;;;;;25.00;47.10;;;;;;1572385;75;821;-71
2021/07/22 02:45:19;;;;;;;;;;;25.00;47.10;;;;;;1565539;75;788;-73
2021/07/22 02:47:21;;;;;;;;;;;24.90;47.00;;;;;;1574660;75;1934;-70
2021/07/22 02:49:23;;;;;;;;;;;25.00;46.90;;;;;;1574741;74;1079;-72
2021/07/22 02:51:24;;;;;;;;;;;25.00;46.90;;;;;;1569512;75;719;-72
2021/07/22 02:53:27;;;;;;;;;;;24.90;46.90;;;;;;1569683;75;710;-73
2021/07/22 02:55:29;;;;;;;;;;;25.00;47.20;;;;;;1570383;74;719;-75
2021/07/22 02:57:31;;;;;;;;;;;25.00;47.10;;;;;;1551477;75;793;-70
2021/07/22 02:59:33;;;;;;;;;;;24.90;47.20;;;;;;1557962;75;1171;-73
2021/07/22 03:01:35;;;;;;;;;;;24.90;47.10;;;;;;1572807;74;696;-73
2021/07/22 03:03:37;;;;;;;;;;;24.90;47.20;;;;;;1570018;75;679;-77
2021/07/22 03:05:39;;;;;;;;;;;25.00;47.30;;;;;;1570602;75;724;-74
2021/07/22 03:07:44;;;;;;;;;;;24.90;47.30;;;;;;1572268;75;1931;-76
2021/07/22 03:09:44;;;;;;;;;;;25.00;47.30;;;;;;1565228;74;1727;-72
2021/07/22 03:11:46;;;;;;;;;;;24.90;47.30;;;;;;1566406;75;734;-71
2021/07/22 03:13:48;;;;;;;;;;;25.00;47.50;;;;;;1566814;74;776;-73
2021/07/22 03:15:50;;;;;;;;;;;25.00;47.60;;;;;;1569526;75;686;-72
2021/07/22 03:17:52;;;;;;;;;;;25.00;47.70;;;;;;1574316;75;779;-71
2021/07/22 03:19:53;;;;;;;;;;;24.90;47.60;;;;;;1569716;75;1124;-74
2021/07/22 03:21:55;;;;;;;;;;;24.90;47.70;;;;;;1573034;75;753;-74
2021/07/22 03:23:57;;;;;;;;;;;25.00;47.60;;;;;;1571091;74;791;-70
2021/07/22 03:25:59;;;;;;;;;;;25.00;47.70;;;;;;1574322;75;791;-72
2021/07/22 03:28:01;;;;;;;;;;;25.00;47.70;;;;;;1575146;75;1934;-72
2021/07/22 03:30:03;;;;;;;;;;;24.90;47.80;;;;;;1563365;75;1148;-71
2021/07/22 03:32:07;;;;;;;;;;;25.00;47.80;;;;;;1568773;74;695;-73
2021/07/22 03:34:08;;;;;;;;;;;24.90;47.80;;;;;;1574646;75;785;-71
2021/07/22 03:36:10;;;;;;;;;;;25.00;47.80;;;;;;1571771;75;777;-73
2021/07/22 03:38:12;;;;;;;;;;;24.90;47.80;;;;;;1574315;75;760;-71
2021/07/22 03:40:14;;;;;;;;;;;25.00;47.90;;;;;;1560905;74;1129;-73
2021/07/22 03:42:16;;;;;;;;;;;24.90;47.90;;;;;;1561015;74;796;-71
2021/07/22 03:44:18;;;;;;;;;;;24.90;47.90;;;;;;1573363;75;751;-71
2021/07/22 03:46:20;;;;;;;;;;;25.00;47.90;;;;;;1574143;75;725;-71
2021/07/22 03:48:22;;;;;;;;;;;24.90;47.90;;;;;;1569705;75;1943;-72
2021/07/22 03:50:23;;;;;;;;;;;24.90;47.90;;;;;;1573094;74;1098;-72
2021/07/22 03:52:25;;;;;;;;;;;24.90;47.90;;;;;;1575939;74;741;-74
2021/07/22 03:54:27;;;;;;;;;;;24.90;47.90;;;;;;1571130;75;738;-71
2021/07/22 03:56:29;;;;;;;;;;;24.90;48.00;;;;;;1573585;75;763;-70
2021/07/22 03:58:31;;;;;;;;;;;24.90;48.00;;;;;;1573051;74;743;-71
2021/07/22 04:00:33;;;;;;;;;;;24.80;47.80;;;;;;1569936;74;1058;-71
2021/07/22 04:02:35;;;;;;;;;;;24.90;48.00;;;;;;1572387;74;705;-67
2021/07/22 04:04:37;;;;;;;;;;;24.90;48.00;;;;;;1572509;75;773;-70
2021/07/22 04:06:40;;;;;;;;;;;24.90;47.90;;;;;;1570873;75;1932;-70
2021/07/22 04:08:42;;;;;;;;;;;24.80;47.90;;;;;;1572262;75;1135;-71
2021/07/22 04:10:44;;;;;;;;;;;24.90;48.00;;;;;;1571255;74;903;-77
2021/07/22 04:12:45;;;;;;;;;;;24.80;47.90;;;;;;1570885;75;787;-72
2021/07/22 04:14:47;;;;;;;;;;;24.90;48.00;;;;;;1547362;76;782;-71
2021/07/22 04:16:49;;;;;;;;;;;24.90;48.00;;;;;;1547344;75;618;-70
2021/07/22 04:18:51;;;;;;;;;;;24.90;48.00;;;;;;1546315;75;1135;-73
2021/07/22 04:20:53;;;;;;;;;;;24.90;48.00;;;;;;1540075;76;736;-73
2021/07/22 04:22:56;;;;;;;;;;;24.90;48.10;;;;;;1543682;76;729;-73
2021/07/22 04:24:58;;;;;;;;;;;24.90;48.10;;;;;;1557092;76;2220;-71
2021/07/22 04:27:00;;;;;;;;;;;24.90;48.10;;;;;;1554594;76;1940;-71
2021/07/22 04:29:02;;;;;;;;;;;24.90;48.10;;;;;;1541645;76;1117;-72
2021/07/22 04:31:04;;;;;;;;;;;24.80;47.90;;;;;;1567073;76;857;-72
2021/07/22 04:33:06;;;;;;;;;;;24.80;48.10;;;;;;1563762;76;706;-74
2021/07/22 04:35:08;;;;;;;;;;;24.90;48.20;;;;;;1565205;76;800;-73
2021/07/22 04:37:10;;;;;;;;;;;24.90;48.30;;;;;;1565019;74;805;-75
2021/07/22 04:39:12;;;;;;;;;;;24.80;48.20;;;;;;1563653;76;1204;-75
2021/07/22 04:41:14;;;;;;;;;;;24.80;48.20;;;;;;1564967;76;838;-73
2021/07/22 04:43:16;;;;;;;;;;;24.80;48.20;;;;;;1562336;76;765;-71
2021/07/22 04:45:18;;;;;;;;;;;24.90;48.30;;;;;;1566073;76;756;-73
2021/07/22 04:47:20;;;;;;;;;;;24.90;48.30;;;;;;1560514;74;1927;-73
2021/07/22 04:49:22;;;;;;;;;;;24.80;48.20;;;;;;1562250;76;1117;-75
2021/07/22 04:51:23;;;;;;;;;;;24.90;48.40;;;;;;1565503;76;744;-74
2021/07/22 04:53:25;;;;;;;;;;;24.90;48.40;;;;;;1556136;76;666;-75
2021/07/22 04:55:27;;;;;;;;;;;24.80;48.30;;;;;;1565467;76;797;-76
2021/07/22 04:57:29;;;;;;;;;;;24.90;48.40;;;;;;1552888;74;751;-75
2021/07/22 04:59:31;;;;;;;;;;;24.90;48.40;;;;;;1566553;76;1141;-71
2021/07/22 05:01:33;;;;;;;;;;;24.90;48.30;;;;;;1562361;76;736;-73
2021/07/22 05:03:35;;;;;;;;;;;24.80;48.30;;;;;;1561927;76;696;-73
2021/07/22 05:05:36;;;;;;;;;;;24.90;48.40;;;;;;1562363;74;777;-76
2021/07/22 05:07:38;;;;;;;;;;;24.80;48.30;;;;;;1566416;74;1946;-74
2021/07/22 05:09:40;;;;;;;;;;;24.90;48.50;;;;;;1559856;76;1142;-70
2021/07/22 05:11:42;;;;;;;;;;;24.90;48.50;;;;;;1562179;76;720;-72
2021/07/22 05:13:44;;;;;;;;;;;24.80;48.50;;;;;;1564310;76;796;-73
2021/07/22 05:15:46;;;;;;;;;;;24.80;48.50;;;;;;1566246;76;806;-74
2021/07/22 05:17:48;;;;;;;;;;;24.80;48.60;;;;;;1563631;76;840;-73
2021/07/22 05:19:50;;;;;;;;;;;24.80;48.70;;;;;;1566280;76;1133;-74
2021/07/22 05:21:51;;;;;;;;;;;24.80;48.70;;;;;;1561796;76;741;-71
2021/07/22 05:23:53;;;;;;;;;;;24.90;48.90;;;;;;1566790;74;742;-73
2021/07/22 05:25:55;;;;;;;;;;;24.90;49.00;;;;;;1565745;74;738;-74
2021/07/22 05:27:57;;;;;;;;;;;24.90;49.00;;;;;;1566303;76;1952;-74
2021/07/22 05:29:59;;;;;;;;;;;24.80;49.00;;;;;;1560320;76;1116;-72
2021/07/22 05:32:01;;;;;;;;;;;24.80;49.00;;;;;;1565465;76;800;-72
2021/07/22 05:34:03;;;;;;;;;;;24.90;49.20;;;;;;1569977;74;795;-76
2021/07/22 05:36:06;;;;;;;;;;;24.90;49.20;;;;;;1558842;76;783;-75
2021/07/22 05:38:08;;;;;;;;;;;24.90;49.20;;;;;;1558641;76;1039;-76
2021/07/22 05:40:10;;;;;;;;;;;24.90;49.20;;;;;;1556753;76;1200;-77
2021/07/22 05:42:12;;;;;;;;;;;24.90;49.20;;;;;;1559678;74;767;-75
2021/07/22 05:44:14;;;;;;;;;;;24.90;49.30;;;;;;1567018;74;749;-75
2021/07/22 05:46:19;;;;;;;;;;;25.00;49.30;;;;;;1567127;76;803;-71
2021/07/22 05:48:21;;;;;;;;;;;25.00;49.20;;;;;;1564936;76;1891;-72
2021/07/22 05:50:23;;;;;;;;;;;24.90;49.30;;;;;;1566742;76;1136;-73
2021/07/22 05:52:25;;;;;;;;;;;24.90;49.40;;;;;;1564077;76;726;-73
2021/07/22 05:54:27;;;;;;;;;;;25.00;49.40;;;;;;1555813;74;750;-74
2021/07/22 05:56:29;;;;;;;;;;;25.00;49.50;;;;;;1557344;75;815;-75
2021/07/22 05:58:34;;;;;;;;;;;25.00;49.30;;;;;;1562238;75;779;-69
2021/07/22 06:00:36;;;;;;;;;;;25.00;48.90;;;;;;1565722;76;1125;-71
2021/07/22 06:02:38;;;;;;;;;;;25.00;48.90;;;;;;1558531;74;609;-74
2021/07/22 06:04:40;;;;;;;;;;;25.10;48.70;;;;;;1569929;76;654;-74
2021/07/22 06:06:43;;;;;;;;;;;25.00;48.60;;;;;;1563951;76;764;-75
2021/07/22 06:08:45;;;;;;;;;;;25.00;48.60;;;;;;1569286;76;1900;-77
2021/07/22 06:10:47;;;;;;;;;;;25.00;48.60;;;;;;1569058;74;788;-77
2021/07/22 06:12:48;;;;;;;;;;;25.10;48.60;;;;;;1560311;76;714;-75
2021/07/22 06:14:50;;;;;;;;;;;25.00;48.50;;;;;;1554733;76;686;-75
2021/07/22 06:16:52;;;;;;;;;;;25.00;48.40;;;;;;1562628;76;732;-74
2021/07/22 06:18:54;;;;;;;;;;;25.00;48.40;;;;;;1561540;76;1082;-73
2021/07/22 06:20:56;;;;;;;;;;;25.00;48.40;;;;;;1566572;74;746;-75
2021/07/22 06:22:58;;;;;;;;;;;25.10;48.10;;;;;;1566056;76;818;-73
2021/07/22 06:25:00;;;;;;;;;;;25.10;48.20;;;;;;1563674;76;735;-73
2021/07/22 06:27:02;;;;;;;;;;;25.10;48.00;;;;;;1566700;76;690;-72
2021/07/22 06:29:04;;;;;;;;;;;25.10;47.90;;;;;;1569011;74;1944;-73
2021/07/22 06:31:06;;;;;;;;;;;25.10;47.80;;;;;;1568638;76;703;-73
2021/07/22 06:33:07;;;;;;;;;;;25.20;47.60;;;;;;1556130;76;863;-73
2021/07/22 06:35:09;;;;;;;;;;;25.10;47.50;;;;;;1560916;76;743;-74
2021/07/22 06:37:13;;;;;;;;;;;25.20;47.50;;;;;;1565406;76;707;-72
2021/07/22 06:39:15;;;;;;;;;;;25.20;47.40;;;;;;1549806;74;1177;-73
2021/07/22 06:41:18;;;;;;;;;;;25.20;47.40;;;;;;1549027;75;723;-73
2021/07/22 06:43:20;;;;;;;;;;;25.30;47.30;;;;;;1558970;76;996;-73
2021/07/22 06:45:22;;;;;;;;;;;25.30;47.30;;;;;;1562067;76;719;-73
2021/07/22 06:47:24;;;;;;;;;;;25.30;47.40;;;;;;1567541;76;805;-74
2021/07/22 06:49:26;;;;;;;;;;;25.30;47.40;;;;;;1567201;74;1936;-73
2021/07/22 06:51:28;;;;;;;;;;;25.30;47.40;;;;;;1568376;76;911;-73
2021/07/22 06:53:30;;;;;;;;;;;25.40;47.30;;;;;;1568837;76;730;-70
2021/07/22 06:55:32;;;;;;;;;;;25.40;47.20;;;;;;1563367;76;722;-72
2021/07/22 06:57:34;;;;;;;;;;;25.50;47.20;;;;;;1567680;76;756;-73
2021/07/22 06:59:36;;;;;;;;;;;25.40;47.10;;;;;;1566055;74;1122;-74
2021/07/22 07:01:38;;;;;;;;;;;25.50;47.20;;;;;;1569370;76;705;-74
2021/07/22 07:03:40;;;;;;;;;;;25.50;47.10;;;;;;1567916;76;727;-71
2021/07/22 07:05:42;;;;;;;;;;;25.50;47.10;;;;;;1566742;76;784;-72
2021/07/22 07:07:44;;;;;;;;;;;25.50;47.30;;;;;;1564812;76;1942;-77
2021/07/22 07:09:45;;;;;;;;;;;25.50;47.30;;;;;;1564625;74;1129;-75
2021/07/22 07:11:47;;;;;;;;;;;25.50;47.30;;;;;;1567328;76;759;-72
2021/07/22 07:13:49;;;;;;;;;;;25.50;47.40;;;;;;1565406;76;786;-74
2021/07/22 07:15:51;;;;;;;;;;;25.50;47.20;;;;;;1565701;76;775;-71
2021/07/22 07:17:53;;;;;;;;;;;25.60;47.20;;;;;;1563832;74;734;-70
2021/07/22 07:19:55;;;;;;;;;;;25.60;47.20;;;;;;1569508;76;1136;-75
2021/07/22 07:21:57;;;;;;;;;;;25.60;47.20;;;;;;1565066;76;780;-75
2021/07/22 07:23:58;;;;;;;;;;;25.70;47.20;;;;;;1569576;76;686;-74
2021/07/22 07:26:00;;;;;;;;;;;25.70;47.00;;;;;;1558563;74;721;-76
2021/07/22 07:28:02;;;;;;;;;;;25.70;46.90;;;;;;1562874;76;1934;-76
2021/07/22 07:30:05;;;;;;;;;;;25.80;46.80;;;;;;1584952;73;218103;-80
2021/07/22 07:32:07;;;;;;;;;;;25.80;46.80;;;;;;1600720;73;715;-80
2021/07/22 07:34:08;;;;;;;;;;;25.80;46.60;;;;;;1601407;73;730;-78
2021/07/22 07:36:10;;;;;;;;;;;25.80;46.60;;;;;;1615849;72;1179;-79
2021/07/22 07:38:12;;;;;;;;;;;25.80;46.50;;;;;;1609838;73;811;-79
2021/07/22 07:40:14;;;;;;;;;;;25.90;46.50;;;;;;1602782;73;810;-78
2021/07/22 07:42:16;;;;;;;;;;;25.80;46.50;;;;;;1614896;73;663;-79
2021/07/22 07:44:18;;;;;;;;;;;25.80;46.50;;;;;;1613911;72;721;-78
2021/07/22 07:46:20;;;;;;;;;;;25.90;46.50;;;;;;1608590;73;1179;-78
2021/07/22 07:48:22;;;;;;;;;;;25.80;46.50;;;;;;1620768;73;1912;-79
2021/07/22 07:50:24;;;;;;;;;;;25.80;46.60;;;;;;1622967;72;753;-79
2021/07/22 07:52:28;;;;;;;;;;;25.80;46.50;;;;;;1621620;72;782;-80
2021/07/22 07:54:29;;;;;;;;;;;25.80;46.50;;;;;;1600581;72;862;-79
2021/07/22 07:56:31;;;;;;;;;;;25.90;46.50;;;;;;1611584;72;1157;-78
2021/07/22 07:58:33;;;;;;;;;;;25.80;46.50;;;;;;1613119;72;725;-78
2021/07/22 08:00:35;;;;;;;;;;;25.80;46.40;;;;;;1611074;72;752;-77
2021/07/22 08:02:37;;;;;;;;;;;25.80;46.40;;;;;;1625980;72;773;-78
2021/07/22 08:04:39;;;;;;;;;;;25.90;46.30;;;;;;1617982;72;644;-79
2021/07/22 08:06:41;;;;;;;;;;;25.90;46.30;;;;;;1617023;72;720;-79
2021/07/22 08:08:43;;;;;;;;;;;25.80;46.30;;;;;;1600996;72;1937;-80
2021/07/22 08:10:45;;;;;;;;;;;25.90;46.30;;;;;;1612762;72;770;-77
2021/07/22 08:12:47;;;;;;;;;;;25.90;46.10;;;;;;1624825;72;1110;-80
2021/07/22 08:14:48;;;;;;;;;;;25.90;46.00;;;;;;1621962;72;1112;-78
2021/07/22 08:16:50;;;;;;;;;;;25.90;46.00;;;;;;1622793;73;656;-78
2021/07/22 08:18:52;;;;;;;;;;;25.90;46.00;;;;;;1611100;73;711;-80
2021/07/22 08:20:54;;;;;;;;;;;25.90;45.10;;;;;;1604878;73;770;-78
2021/07/22 08:22:56;;;;;;;;;;;25.90;45.90;;;;;;1609375;72;734;-78
2021/07/22 08:24:58;;;;;;;;;;;25.90;45.90;;;;;;1601724;72;1139;-79
2021/07/22 08:27:00;;;;;;;;;;;25.90;45.80;;;;;;1609699;73;800;-78
2021/07/22 08:29:02;;;;;;;;;;;25.90;46.00;;;;;;1607118;73;1936;-78
2021/07/22 08:31:04;;;;;;;;;;;25.90;45.90;;;;;;1604370;72;764;-79
2021/07/22 08:33:06;;;;;;;;;;;26.00;46.30;;;;;;1615925;72;732;-79
2021/07/22 08:35:08;;;;;;;;;;;26.00;46.20;;;;;;1607359;72;1188;-79
2021/07/22 08:37:11;;;;;;;;;;;26.00;46.20;;;;;;1612038;72;713;-79
2021/07/22 08:39:12;;;;;;;;;;;26.00;46.10;;;;;;1612359;72;835;-79
2021/07/22 08:41:14;;;;;;;;;;;26.00;46.10;;;;;;1608131;72;786;-80
2021/07/22 08:43:16;;;;;;;;;;;26.00;46.10;;;;;;1611012;72;812;-80
2021/07/22 08:45:18;;;;;;;;;;;26.00;46.10;;;;;;1614888;73;1147;-78
2021/07/22 08:47:20;;;;;;;;;;;26.10;46.00;;;;;;1616117;73;765;-78
2021/07/22 08:49:22;;;;;;;;;;;26.10;45.90;;;;;;1620240;72;1913;-78
2021/07/22 08:51:25;;;;;;;;;;;26.00;46.00;;;;;;1622063;72;790;-78
2021/07/22 08:53:27;;;;;;;;;;;26.00;45.70;;;;;;1611961;72;764;-79
2021/07/22 08:55:29;;;;;;;;;;;26.10;45.80;;;;;;1604653;72;1067;-79
2021/07/22 08:57:33;;;;;;;;;;;26.10;45.70;;;;;;1606098;72;715;-79
2021/07/22 08:59:35;;;;;;;;;;;26.10;45.70;;;;;;1610308;72;670;-79
2021/07/22 09:01:37;;;;;;;;;;;26.00;45.60;;;;;;1616862;73;776;-78
2021/07/22 09:03:39;;;;;;;;;;;26.10;45.50;;;;;;1603476;73;901;-79
2021/07/22 09:05:41;;;;;;;;;;;26.10;44.80;;;;;;1605632;72;1134;-80
2021/07/22 09:07:43;;;;;;;;;;;26.10;45.30;;;;;;1609490;73;760;-77
2021/07/22 09:09:47;;;;;;;;;;;26.00;45.00;;;;;;1604959;73;1937;-79
2021/07/22 09:11:56;;;;;;;;;;;26.10;45.10;;;;;;1610353;72;1136;-79
2021/07/22 09:14:08;;;;;;;;;;;26.10;44.90;;;;;;1613994;72;723;-79
2021/07/22 09:16:10;;;;;;;;;;;26.00;44.30;;;;;;1610793;72;1229;-79
2021/07/22 09:18:25;;;;;;;;;;;26.00;44.30;;;;;;1618125;72;746;-79
2021/07/22 09:20:28;;;;;;;;;;;25.90;43.40;;;;;;1609889;72;754;-79
2021/07/22 09:22:34;;;;;;;;;;;26.00;44.60;;;;;;1617511;73;735;-78
2021/07/22 09:24:40;;;;;;;;;;;26.00;45.00;;;;;;1609074;72;944;-79
2021/07/22 09:26:46;;;;;;;;;;;26.00;44.40;;;;;;1601279;72;1040;-78
2021/07/22 09:28:47;;;;;;;;;;;26.00;44.20;;;;;;1608030;72;1940;-78
2021/07/22 09:30:56;;;;;;;;;;;26.00;44.60;;;;;;1613067;72;946;-78
2021/07/22 09:32:57;;;;;;;;;;;26.00;44.50;;;;;;1612791;72;764;-80
2021/07/22 09:35:10;;;;;;;;;;;26.00;44.70;;;;;;1613398;72;1146;-80
2021/07/22 09:37:11;;;;;;;;;;;26.00;44.20;;;;;;1602628;73;811;-79
2021/07/22 09:39:21;;;;;;;;;;;26.00;44.50;;;;;;1599587;72;754;-81
2021/07/22 09:41:23;;;;;;;;;;;26.00;44.50;;;;;;1594728;72;994;-78
2021/07/22 09:43:27;;;;;;;;;;;26.00;44.50;;;;;;1609823;73;816;-80
2021/07/22 09:45:38;;;;;;;;;;;26.10;44.10;;;;;;1598735;72;1145;-81
2021/07/22 09:47:36;;;;;;;;;;;26.00;44.00;;;;;;1597384;73;873;-80
2021/07/22 09:49:38;;;;;;;;;;;26.00;43.70;;;;;;1609799;73;1955;-80
2021/07/22 09:51:40;;;;;;;;;;;26.00;44.00;;;;;;1617753;72;710;-80
2021/07/22 09:53:42;;;;;;;;;;;26.00;43.60;;;;;;1610145;73;878;-80
2021/07/22 09:55:44;;;;;;;;;;;26.00;44.30;;;;;;1601848;73;1127;-79
2021/07/22 09:57:45;;;;;;;;;;;26.00;44.50;;;;;;1603449;72;813;-80
2021/07/22 09:59:48;;;;;;;;;;;26.00;44.60;;;;;;1602925;73;698;-78
2021/07/22 10:01:50;;;;;;;;;;;25.90;43.00;;;;;;1621793;73;797;-79
2021/07/22 10:03:52;;;;;;;;;;;25.90;43.60;;;;;;1610952;72;871;-79
2021/07/22 10:06:03;;;;;;;;;;;25.90;43.90;;;;;;1603166;73;1172;-78
2021/07/22 10:08:05;;;;;;;;;;;25.90;43.70;;;;;;1613527;73;720;-79
2021/07/22 10:10:07;;;;;;;;;;;25.90;43.70;;;;;;1606802;73;1905;-79
2021/07/22 10:12:09;;;;;;;;;;;26.00;44.30;;;;;;1614494;73;735;-77
2021/07/22 10:14:12;;;;;;;;;;;26.00;44.20;;;;;;1616396;72;829;-78
2021/07/22 10:16:16;;;;;;;;;;;26.00;44.30;;;;;;1612923;72;1132;-78
2021/07/22 10:18:19;;;;;;;;;;;26.00;44.40;;;;;;1603857;73;1817;-78
2021/07/22 10:20:20;;;;;;;;;;;26.00;44.40;;;;;;1605577;73;826;-78
2021/07/22 10:22:22;;;;;;;;;;;26.00;44.40;;;;;;1618056;72;757;-78
2021/07/22 10:24:24;;;;;;;;;;;25.90;43.90;;;;;;1609618;72;713;-77
2021/07/22 10:26:26;;;;;;;;;;;25.90;43.40;;;;;;1610143;73;1125;-78
2021/07/22 10:28:28;;;;;;;;;;;26.00;44.20;;;;;;1621817;72;672;-78
2021/07/22 10:30:30;;;;;;;;;;;25.90;43.60;;;;;;1617172;72;1931;-77
2021/07/22 10:32:33;;;;;;;;;;;25.90;43.70;;;;;;1618006;72;767;-77
2021/07/22 10:34:35;;;;;;;;;;;25.90;43.60;;;;;;1608403;73;693;-80
2021/07/22 10:36:38;;;;;;;;;;;25.90;43.80;;;;;;1589802;73;1127;-78
2021/07/22 10:38:46;;;;;;;;;;;26.00;44.20;;;;;;1617496;72;736;-78
2021/07/22 10:40:58;;;;;;;;;;;26.00;44.00;;;;;;1609693;72;673;-77
2021/07/22 10:43:00;;;;;;;;;;;26.00;44.20;;;;;;1611420;72;806;-77
2021/07/22 10:45:02;;;;;;;;;;;25.90;43.40;;;;;;1610396;73;1158;-78
2021/07/22 10:47:08;;;;;;;;;;;26.00;44.10;;;;;;1626661;73;612;-78
2021/07/22 10:49:16;;;;;;;;;;;26.00;44.00;;;;;;1624985;72;1919;-79
2021/07/22 10:51:22;;;;;;;;;;;25.90;43.40;;;;;;1614816;72;963;-78
2021/07/22 10:53:39;;;;;;;;;;;25.90;43.60;;;;;;1597409;72;818;-78
2021/07/22 10:55:43;;;;;;;;;;;26.00;44.10;;;;;;1598805;73;1131;-77
2021/07/22 10:57:45;;;;;;;;;;;25.90;43.40;;;;;;1605644;73;713;-79
2021/07/22 10:59:48;;;;;;;;;;;25.90;43.60;;;;;;1620355;72;791;-78
2021/07/22 11:01:51;;;;;;;;;;;25.80;43.50;;;;;;1611690;73;986;-78
2021/07/22 11:03:54;;;;;;;;;;;25.80;43.60;;;;;;1613980;72;694;-79
2021/07/22 11:05:56;;;;;;;;;;;25.80;43.60;;;;;;1604566;72;1151;-78
2021/07/22 11:08:16;;;;;;;;;;;25.70;43.00;;;;;;1614533;73;765;-78
2021/07/22 11:10:20;;;;;;;;;;;25.70;43.10;;;;;;1623231;73;1928;-77
2021/07/22 11:12:29;;;;;;;;;;;25.60;43.60;;;;;;1610103;73;1081;-79
2021/07/22 11:14:31;;;;;;;;;;;25.70;43.90;;;;;;1598317;72;964;-78
2021/07/22 11:16:33;;;;;;;;;;;25.70;43.60;;;;;;1604187;72;1055;-79
2021/07/22 11:18:45;;;;;;;;;;;25.80;43.50;;;;;;1583372;74;1231;-78
2021/07/22 11:20:47;;;;;;;;;;;25.80;43.40;;;;;;1615719;72;722;-78
2021/07/22 11:22:49;;;;;;;;;;;25.80;43.30;;;;;;1608199;72;729;-78
2021/07/22 11:24:51;;;;;;;;;;;25.80;43.40;;;;;;1608591;72;1119;-78
2021/07/22 11:26:55;;;;;;;;;;;25.90;43.00;;;;;;1577313;73;1146;-78
2021/07/22 11:28:57;;;;;;;;;;;25.90;43.40;;;;;;1601636;72;1282;-78
2021/07/22 11:31:01;;;;;;;;;;;25.80;43.40;;;;;;1615092;72;1944;-78
2021/07/22 11:33:15;;;;;;;;;;;25.90;43.40;;;;;;1607704;72;805;-78
2021/07/22 11:35:18;;;;;;;;;;;25.80;43.40;;;;;;1607975;73;1172;-79
2021/07/22 11:37:20;;;;;;;;;;;25.70;43.30;;;;;;1628585;72;722;-79
2021/07/22 11:39:40;;;;;;;;;;;25.70;43.70;;;;;;1604272;72;690;-79
2021/07/22 11:41:42;;;;;;;;;;;25.80;43.50;;;;;;1607569;72;812;-79
2021/07/22 11:43:45;;;;;;;;;;;25.70;43.00;;;;;;1614561;73;748;-79
2021/07/22 11:45:50;;;;;;;;;;;25.70;43.70;;;;;;1615162;72;1165;-78
2021/07/22 11:47:52;;;;;;;;;;;25.60;43.50;;;;;;1606197;73;1147;-78
2021/07/22 11:49:55;;;;;;;;;;;25.50;43.70;;;;;;1610404;72;1909;-79
2021/07/22 11:51:57;;;;;;;;;;;25.50;43.90;;;;;;1618415;73;691;-78
2021/07/22 11:53:59;;;;;;;;;;;25.60;43.70;;;;;;1613599;72;805;-78
2021/07/22 11:56:02;;;;;;;;;;;25.70;43.60;;;;;;1608474;72;1122;-79
2021/07/22 11:58:04;;;;;;;;;;;25.70;43.40;;;;;;1614577;72;1124;-78
2021/07/22 12:00:15;;;;;;;;;;;25.70;43.40;;;;;;1605296;72;683;-78
2021/07/22 12:02:17;;;;;;;;;;;25.70;43.30;;;;;;1628012;72;700;-78
2021/07/22 12:04:23;;;;;;;;;;;25.50;43.60;;;;;;1618598;72;737;-79
2021/07/22 12:06:25;;;;;;;;;;;25.60;43.60;;;;;;1609380;72;1123;-80
2021/07/22 12:08:27;;;;;;;;;;;25.50;43.60;;;;;;1625140;72;671;-79
2021/07/22 12:10:30;;;;;;;;;;;25.50;43.90;;;;;;1609834;72;1937;-79
2021/07/22 12:12:32;;;;;;;;;;;25.50;43.70;;;;;;1610114;72;845;-78